sensor_id;sensor_type;location;lat;lon;timestamp;P1;durP1;ratioP1;P2;durP2;ratioP2
79539;SDS011;74475;52.122;5.406;2023-12-07T00:01:22;4.30;;;2.13;;
79539;SDS011;74475;52.122;5.406;2023-12-07T00:03:49;3.08;;;1.88;;
79539;SDS011;74475;52.122;5.406;2023-12-07T00:06:15;4.20;;;1.70;;
79539;SDS011;74475;52.122;5.406;2023-12-07T00:08:42;3.85;;;1.88;;
79539;SDS011;74475;52.122;5.406;2023-12-07T00:11:08;3.90;;;2.13;;
79539;SDS011;74475;52.122;5.406;2023-12-07T00:13:35;3.35;;;1.92;;
79539;SDS011;74475;52.122;5.406;2023-12-07T00:16:01;3.67;;;1.80;;
79539;SDS011;74475;52.122;5.406;2023-12-07T00:18:28;2.78;;;1.90;;
79539;SDS011;74475;52.122;5.406;2023-12-07T00:20:54;4.28;;;2.17;;
79539;SDS011;74475;52.122;5.406;2023-12-07T00:23:21;3.85;;;1.98;;
79539;SDS011;74475;52.122;5.406;2023-12-07T00:25:47;3.25;;;2.20;;
79539;SDS011;74475;52.122;5.406;2023-12-07T00:28:14;3.63;;;2.08;;
79539;SDS011;74475;52.122;5.406;2023-12-07T00:30:40;2.63;;;1.70;;
79539;SDS011;74475;52.122;5.406;2023-12-07T00:33:08;3.97;;;2.17;;
79539;SDS011;74475;52.122;5.406;2023-12-07T00:35:35;3.60;;;1.75;;
79539;SDS011;74475;52.122;5.406;2023-12-07T00:38:02;2.60;;;1.77;;
79539;SDS011;74475;52.122;5.406;2023-12-07T00:40:28;3.78;;;1.95;;
79539;SDS011;74475;52.122;5.406;2023-12-07T00:42:55;3.67;;;2.13;;
79539;SDS011;74475;52.122;5.406;2023-12-07T00:45:21;3.33;;;1.73;;
79539;SDS011;74475;52.122;5.406;2023-12-07T00:47:48;3.25;;;1.85;;
79539;SDS011;74475;52.122;5.406;2023-12-07T00:50:14;3.60;;;2.03;;
79539;SDS011;74475;52.122;5.406;2023-12-07T00:52:41;4.07;;;1.90;;
79539;SDS011;74475;52.122;5.406;2023-12-07T00:55:08;3.78;;;1.98;;
79539;SDS011;74475;52.122;5.406;2023-12-07T00:57:37;3.95;;;2.28;;
79539;SDS011;74475;52.122;5.406;2023-12-07T01:00:04;3.05;;;1.77;;
79539;SDS011;74475;52.122;5.406;2023-12-07T01:02:32;3.15;;;1.88;;
79539;SDS011;74475;52.122;5.406;2023-12-07T01:04:58;3.78;;;1.90;;
79539;SDS011;74475;52.122;5.406;2023-12-07T01:07:25;3.08;;;1.65;;
79539;SDS011;74475;52.122;5.406;2023-12-07T01:09:51;3.63;;;1.80;;
79539;SDS011;74475;52.122;5.406;2023-12-07T01:12:18;3.45;;;2.13;;
79539;SDS011;74475;52.122;5.406;2023-12-07T01:14:44;3.25;;;1.75;;
79539;SDS011;74475;52.122;5.406;2023-12-07T01:17:11;3.25;;;2.30;;
79539;SDS011;74475;52.122;5.406;2023-12-07T01:19:37;4.05;;;2.15;;
79539;SDS011;74475;52.122;5.406;2023-12-07T01:22:04;2.55;;;1.90;;
79539;SDS011;74475;52.122;5.406;2023-12-07T01:24:30;2.90;;;1.83;;
79539;SDS011;74475;52.122;5.406;2023-12-07T01:26:57;2.80;;;2.03;;
79539;SDS011;74475;52.122;5.406;2023-12-07T01:29:24;3.00;;;2.10;;
79539;SDS011;74475;52.122;5.406;2023-12-07T01:31:51;3.92;;;2.17;;
79539;SDS011;74475;52.122;5.406;2023-12-07T01:34:17;3.63;;;2.00;;
79539;SDS011;74475;52.122;5.406;2023-12-07T01:36:45;3.28;;;2.03;;
79539;SDS011;74475;52.122;5.406;2023-12-07T01:39:12;3.17;;;2.10;;
79539;SDS011;74475;52.122;5.406;2023-12-07T01:41:39;3.03;;;2.00;;
79539;SDS011;74475;52.122;5.406;2023-12-07T01:44:06;2.83;;;1.90;;
79539;SDS011;74475;52.122;5.406;2023-12-07T01:46:32;2.85;;;2.00;;
79539;SDS011;74475;52.122;5.406;2023-12-07T01:49:00;3.80;;;2.28;;
79539;SDS011;74475;52.122;5.406;2023-12-07T01:51:28;3.67;;;2.10;;
79539;SDS011;74475;52.122;5.406;2023-12-07T01:53:54;4.57;;;2.08;;
79539;SDS011;74475;52.122;5.406;2023-12-07T01:56:21;3.75;;;2.05;;
79539;SDS011;74475;52.122;5.406;2023-12-07T01:58:49;4.47;;;1.95;;
79539;SDS011;74475;52.122;5.406;2023-12-07T02:01:16;2.95;;;1.98;;
79539;SDS011;74475;52.122;5.406;2023-12-07T02:03:42;3.45;;;2.17;;
79539;SDS011;74475;52.122;5.406;2023-12-07T02:06:09;3.45;;;2.25;;
79539;SDS011;74475;52.122;5.406;2023-12-07T02:08:36;3.17;;;1.77;;
79539;SDS011;74475;52.122;5.406;2023-12-07T02:13:37;3.53;;;2.03;;
79539;SDS011;74475;52.122;5.406;2023-12-07T02:16:07;4.18;;;2.10;;
79539;SDS011;74475;52.122;5.406;2023-12-07T02:18:43;3.17;;;1.90;;
79539;SDS011;74475;52.122;5.406;2023-12-07T02:21:30;4.03;;;2.15;;
79539;SDS011;74475;52.122;5.406;2023-12-07T02:24:03;3.75;;;2.08;;
79539;SDS011;74475;52.122;5.406;2023-12-07T02:26:34;3.13;;;1.80;;
79539;SDS011;74475;52.122;5.406;2023-12-07T02:29:01;2.63;;;2.13;;
79539;SDS011;74475;52.122;5.406;2023-12-07T02:31:27;2.95;;;2.03;;
79539;SDS011;74475;52.122;5.406;2023-12-07T02:33:54;3.20;;;2.30;;
79539;SDS011;74475;52.122;5.406;2023-12-07T02:36:22;3.80;;;2.30;;
79539;SDS011;74475;52.122;5.406;2023-12-07T02:38:53;4.13;;;1.92;;
79539;SDS011;74475;52.122;5.406;2023-12-07T02:41:22;2.72;;;1.85;;
79539;SDS011;74475;52.122;5.406;2023-12-07T02:43:50;3.38;;;2.03;;
79539;SDS011;74475;52.122;5.406;2023-12-07T02:46:18;3.47;;;2.20;;
79539;SDS011;74475;52.122;5.406;2023-12-07T02:48:44;3.53;;;2.17;;
79539;SDS011;74475;52.122;5.406;2023-12-07T02:51:11;3.45;;;2.25;;
79539;SDS011;74475;52.122;5.406;2023-12-07T02:53:37;3.08;;;1.95;;
79539;SDS011;74475;52.122;5.406;2023-12-07T02:56:04;3.45;;;1.90;;
79539;SDS011;74475;52.122;5.406;2023-12-07T02:58:31;4.05;;;2.10;;
79539;SDS011;74475;52.122;5.406;2023-12-07T03:00:57;5.00;;;2.08;;
79539;SDS011;74475;52.122;5.406;2023-12-07T03:03:25;3.17;;;2.08;;
79539;SDS011;74475;52.122;5.406;2023-12-07T03:05:52;4.53;;;2.33;;
79539;SDS011;74475;52.122;5.406;2023-12-07T03:08:18;3.33;;;2.08;;
79539;SDS011;74475;52.122;5.406;2023-12-07T03:10:45;4.90;;;2.33;;
79539;SDS011;74475;52.122;5.406;2023-12-07T03:13:11;3.80;;;2.30;;
79539;SDS011;74475;52.122;5.406;2023-12-07T03:15:38;4.18;;;2.17;;
79539;SDS011;74475;52.122;5.406;2023-12-07T03:18:04;3.47;;;2.15;;
79539;SDS011;74475;52.122;5.406;2023-12-07T03:20:31;3.50;;;2.10;;
79539;SDS011;74475;52.122;5.406;2023-12-07T03:22:58;4.70;;;2.42;;
79539;SDS011;74475;52.122;5.406;2023-12-07T03:25:24;3.45;;;1.77;;
79539;SDS011;74475;52.122;5.406;2023-12-07T03:27:51;2.70;;;1.70;;
79539;SDS011;74475;52.122;5.406;2023-12-07T03:30:18;3.15;;;1.92;;
79539;SDS011;74475;52.122;5.406;2023-12-07T03:32:44;4.07;;;1.98;;
79539;SDS011;74475;52.122;5.406;2023-12-07T03:35:11;4.50;;;1.83;;
79539;SDS011;74475;52.122;5.406;2023-12-07T03:37:37;4.10;;;2.03;;
79539;SDS011;74475;52.122;5.406;2023-12-07T03:40:04;2.65;;;2.03;;
79539;SDS011;74475;52.122;5.406;2023-12-07T03:42:32;4.13;;;2.10;;
79539;SDS011;74475;52.122;5.406;2023-12-07T03:45:18;3.63;;;2.03;;
79539;SDS011;74475;52.122;5.406;2023-12-07T03:47:44;2.97;;;2.20;;
79539;SDS011;74475;52.122;5.406;2023-12-07T03:50:11;3.70;;;2.15;;
79539;SDS011;74475;52.122;5.406;2023-12-07T03:52:37;2.80;;;2.10;;
79539;SDS011;74475;52.122;5.406;2023-12-07T03:55:04;4.30;;;2.10;;
79539;SDS011;74475;52.122;5.406;2023-12-07T03:57:31;3.33;;;2.00;;
79539;SDS011;74475;52.122;5.406;2023-12-07T03:59:58;3.17;;;2.00;;
79539;SDS011;74475;52.122;5.406;2023-12-07T04:02:24;3.40;;;1.83;;
79539;SDS011;74475;52.122;5.406;2023-12-07T04:04:51;3.97;;;2.03;;
79539;SDS011;74475;52.122;5.406;2023-12-07T04:07:18;3.45;;;2.13;;
79539;SDS011;74475;52.122;5.406;2023-12-07T04:09:44;3.80;;;1.88;;
79539;SDS011;74475;52.122;5.406;2023-12-07T04:12:11;3.03;;;2.30;;
79539;SDS011;74475;52.122;5.406;2023-12-07T04:14:37;3.28;;;1.98;;
79539;SDS011;74475;52.122;5.406;2023-12-07T04:17:04;4.22;;;2.30;;
79539;SDS011;74475;52.122;5.406;2023-12-07T04:19:30;3.00;;;2.15;;
79539;SDS011;74475;52.122;5.406;2023-12-07T04:21:57;2.33;;;1.77;;
79539;SDS011;74475;52.122;5.406;2023-12-07T04:24:23;3.05;;;2.03;;
79539;SDS011;74475;52.122;5.406;2023-12-07T04:26:50;3.15;;;2.00;;
79539;SDS011;74475;52.122;5.406;2023-12-07T04:29:16;2.85;;;2.00;;
79539;SDS011;74475;52.122;5.406;2023-12-07T04:31:42;3.05;;;1.88;;
79539;SDS011;74475;52.122;5.406;2023-12-07T04:34:10;2.90;;;1.70;;
79539;SDS011;74475;52.122;5.406;2023-12-07T04:36:37;3.47;;;2.10;;
79539;SDS011;74475;52.122;5.406;2023-12-07T04:39:03;3.90;;;2.35;;
79539;SDS011;74475;52.122;5.406;2023-12-07T04:41:29;3.92;;;2.20;;
79539;SDS011;74475;52.122;5.406;2023-12-07T04:43:56;3.40;;;2.08;;
79539;SDS011;74475;52.122;5.406;2023-12-07T04:46:22;3.92;;;2.17;;
79539;SDS011;74475;52.122;5.406;2023-12-07T04:48:49;3.28;;;1.90;;
79539;SDS011;74475;52.122;5.406;2023-12-07T04:51:15;3.40;;;2.22;;
79539;SDS011;74475;52.122;5.406;2023-12-07T04:53:42;3.42;;;2.00;;
79539;SDS011;74475;52.122;5.406;2023-12-07T04:56:08;2.75;;;2.13;;
79539;SDS011;74475;52.122;5.406;2023-12-07T04:58:35;4.18;;;2.63;;
79539;SDS011;74475;52.122;5.406;2023-12-07T05:01:02;4.10;;;2.13;;
79539;SDS011;74475;52.122;5.406;2023-12-07T05:03:30;2.70;;;1.90;;
79539;SDS011;74475;52.122;5.406;2023-12-07T05:05:57;3.95;;;2.00;;
79539;SDS011;74475;52.122;5.406;2023-12-07T05:08:24;2.83;;;2.05;;
79539;SDS011;74475;52.122;5.406;2023-12-07T05:10:50;3.65;;;1.92;;
79539;SDS011;74475;52.122;5.406;2023-12-07T05:13:17;3.45;;;1.88;;
79539;SDS011;74475;52.122;5.406;2023-12-07T05:15:44;3.05;;;1.90;;
79539;SDS011;74475;52.122;5.406;2023-12-07T05:18:13;4.57;;;2.08;;
79539;SDS011;74475;52.122;5.406;2023-12-07T05:20:40;3.55;;;2.28;;
79539;SDS011;74475;52.122;5.406;2023-12-07T05:23:06;3.58;;;2.00;;
79539;SDS011;74475;52.122;5.406;2023-12-07T05:25:32;2.78;;;2.05;;
79539;SDS011;74475;52.122;5.406;2023-12-07T05:27:59;3.17;;;1.73;;
79539;SDS011;74475;52.122;5.406;2023-12-07T05:30:26;4.50;;;2.30;;
79539;SDS011;74475;52.122;5.406;2023-12-07T05:32:54;3.38;;;2.05;;
79539;SDS011;74475;52.122;5.406;2023-12-07T05:35:20;2.92;;;1.75;;
79539;SDS011;74475;52.122;5.406;2023-12-07T05:37:47;3.45;;;2.33;;
79539;SDS011;74475;52.122;5.406;2023-12-07T05:40:13;4.43;;;2.63;;
79539;SDS011;74475;52.122;5.406;2023-12-07T05:42:40;4.03;;;2.13;;
79539;SDS011;74475;52.122;5.406;2023-12-07T05:45:07;3.22;;;1.80;;
79539;SDS011;74475;52.122;5.406;2023-12-07T05:47:36;3.47;;;2.33;;
79539;SDS011;74475;52.122;5.406;2023-12-07T05:50:02;2.97;;;1.67;;
79539;SDS011;74475;52.122;5.406;2023-12-07T05:52:29;4.70;;;2.10;;
79539;SDS011;74475;52.122;5.406;2023-12-07T05:54:56;4.45;;;2.60;;
79539;SDS011;74475;52.122;5.406;2023-12-07T05:57:23;5.20;;;2.78;;
79539;SDS011;74475;52.122;5.406;2023-12-07T05:59:49;12.57;;;6.50;;
79539;SDS011;74475;52.122;5.406;2023-12-07T06:02:16;10.30;;;4.30;;
79539;SDS011;74475;52.122;5.406;2023-12-07T06:04:42;6.20;;;3.90;;
79539;SDS011;74475;52.122;5.406;2023-12-07T06:07:09;7.75;;;4.60;;
79539;SDS011;74475;52.122;5.406;2023-12-07T06:09:35;7.40;;;4.30;;
79539;SDS011;74475;52.122;5.406;2023-12-07T06:12:02;8.23;;;4.53;;
79539;SDS011;74475;52.122;5.406;2023-12-07T06:14:30;8.27;;;3.95;;
79539;SDS011;74475;52.122;5.406;2023-12-07T06:16:58;5.97;;;3.90;;
79539;SDS011;74475;52.122;5.406;2023-12-07T06:19:25;7.47;;;4.18;;
79539;SDS011;74475;52.122;5.406;2023-12-07T06:21:52;7.55;;;3.65;;
79539;SDS011;74475;52.122;5.406;2023-12-07T06:24:18;8.02;;;4.00;;
79539;SDS011;74475;52.122;5.406;2023-12-07T06:26:44;5.32;;;3.33;;
79539;SDS011;74475;52.122;5.406;2023-12-07T06:29:11;6.85;;;3.72;;
79539;SDS011;74475;52.122;5.406;2023-12-07T06:31:42;6.13;;;3.28;;
79539;SDS011;74475;52.122;5.406;2023-12-07T06:34:09;6.10;;;3.78;;
79539;SDS011;74475;52.122;5.406;2023-12-07T06:36:36;5.22;;;3.60;;
79539;SDS011;74475;52.122;5.406;2023-12-07T06:39:02;6.22;;;3.67;;
79539;SDS011;74475;52.122;5.406;2023-12-07T06:41:31;6.15;;;3.70;;
79539;SDS011;74475;52.122;5.406;2023-12-07T06:43:57;6.07;;;3.53;;
79539;SDS011;74475;52.122;5.406;2023-12-07T06:46:24;5.03;;;3.47;;
79539;SDS011;74475;52.122;5.406;2023-12-07T06:48:51;8.77;;;3.90;;
79539;SDS011;74475;52.122;5.406;2023-12-07T06:51:18;5.07;;;3.47;;
79539;SDS011;74475;52.122;5.406;2023-12-07T06:53:44;6.18;;;3.17;;
79539;SDS011;74475;52.122;5.406;2023-12-07T06:56:10;4.72;;;3.13;;
79539;SDS011;74475;52.122;5.406;2023-12-07T06:58:37;5.07;;;3.15;;
79539;SDS011;74475;52.122;5.406;2023-12-07T07:01:03;5.22;;;3.30;;
79539;SDS011;74475;52.122;5.406;2023-12-07T07:03:30;5.25;;;3.35;;
79539;SDS011;74475;52.122;5.406;2023-12-07T07:05:57;9.10;;;3.50;;
79539;SDS011;74475;52.122;5.406;2023-12-07T07:08:25;5.35;;;3.30;;
79539;SDS011;74475;52.122;5.406;2023-12-07T07:10:51;5.45;;;3.38;;
79539;SDS011;74475;52.122;5.406;2023-12-07T07:13:18;6.22;;;3.70;;
79539;SDS011;74475;52.122;5.406;2023-12-07T07:15:46;5.05;;;3.40;;
79539;SDS011;74475;52.122;5.406;2023-12-07T07:18:14;5.22;;;3.53;;
79539;SDS011;74475;52.122;5.406;2023-12-07T07:20:40;6.85;;;3.28;;
79539;SDS011;74475;52.122;5.406;2023-12-07T07:23:07;4.25;;;3.10;;
79539;SDS011;74475;52.122;5.406;2023-12-07T07:25:34;4.72;;;3.08;;
79539;SDS011;74475;52.122;5.406;2023-12-07T07:28:01;3.95;;;2.78;;
79539;SDS011;74475;52.122;5.406;2023-12-07T07:30:28;5.45;;;3.17;;
79539;SDS011;74475;52.122;5.406;2023-12-07T07:32:55;6.20;;;3.70;;
79539;SDS011;74475;52.122;5.406;2023-12-07T07:35:21;4.10;;;2.92;;
79539;SDS011;74475;52.122;5.406;2023-12-07T07:37:48;5.30;;;2.95;;
79539;SDS011;74475;52.122;5.406;2023-12-07T07:40:14;4.88;;;2.85;;
79539;SDS011;74475;52.122;5.406;2023-12-07T07:42:41;4.60;;;2.72;;
79539;SDS011;74475;52.122;5.406;2023-12-07T07:45:07;3.97;;;2.63;;
79539;SDS011;74475;52.122;5.406;2023-12-07T07:47:34;5.43;;;3.05;;
79539;SDS011;74475;52.122;5.406;2023-12-07T07:50:01;4.32;;;2.83;;
79539;SDS011;74475;52.122;5.406;2023-12-07T07:52:34;5.22;;;2.83;;
79539;SDS011;74475;52.122;5.406;2023-12-07T07:57:30;5.03;;;2.92;;
79539;SDS011;74475;52.122;5.406;2023-12-07T07:59:57;4.82;;;2.90;;
79539;SDS011;74475;52.122;5.406;2023-12-07T08:02:24;4.80;;;3.03;;
79539;SDS011;74475;52.122;5.406;2023-12-07T08:04:51;4.47;;;3.20;;
79539;SDS011;74475;52.122;5.406;2023-12-07T08:07:20;4.78;;;3.15;;
79539;SDS011;74475;52.122;5.406;2023-12-07T08:09:47;3.97;;;2.60;;
79539;SDS011;74475;52.122;5.406;2023-12-07T08:12:14;4.75;;;3.00;;
79539;SDS011;74475;52.122;5.406;2023-12-07T08:14:40;4.35;;;3.33;;
79539;SDS011;74475;52.122;5.406;2023-12-07T08:17:11;4.20;;;3.10;;
79539;SDS011;74475;52.122;5.406;2023-12-07T08:19:37;5.32;;;3.00;;
79539;SDS011;74475;52.122;5.406;2023-12-07T08:22:04;3.97;;;3.00;;
79539;SDS011;74475;52.122;5.406;2023-12-07T08:24:31;4.00;;;3.17;;
79539;SDS011;74475;52.122;5.406;2023-12-07T08:26:57;4.57;;;3.20;;
79539;SDS011;74475;52.122;5.406;2023-12-07T08:29:24;4.88;;;3.17;;
79539;SDS011;74475;52.122;5.406;2023-12-07T08:31:50;5.15;;;3.03;;
79539;SDS011;74475;52.122;5.406;2023-12-07T08:34:17;4.15;;;2.95;;
79539;SDS011;74475;52.122;5.406;2023-12-07T08:36:47;4.28;;;3.10;;
79539;SDS011;74475;52.122;5.406;2023-12-07T08:39:13;3.75;;;2.90;;
79539;SDS011;74475;52.122;5.406;2023-12-07T08:41:40;4.75;;;3.13;;
79539;SDS011;74475;52.122;5.406;2023-12-07T08:44:06;4.75;;;2.90;;
79539;SDS011;74475;52.122;5.406;2023-12-07T08:46:33;3.97;;;2.80;;
79539;SDS011;74475;52.122;5.406;2023-12-07T08:49:00;5.18;;;3.10;;
79539;SDS011;74475;52.122;5.406;2023-12-07T08:51:28;4.57;;;3.20;;
79539;SDS011;74475;52.122;5.406;2023-12-07T08:53:55;4.90;;;3.22;;
79539;SDS011;74475;52.122;5.406;2023-12-07T08:56:22;5.50;;;3.08;;
79539;SDS011;74475;52.122;5.406;2023-12-07T08:58:49;4.85;;;3.00;;
79539;SDS011;74475;52.122;5.406;2023-12-07T09:01:16;3.63;;;2.80;;
79539;SDS011;74475;52.122;5.406;2023-12-07T09:03:57;4.55;;;3.03;;
79539;SDS011;74475;52.122;5.406;2023-12-07T09:06:24;3.47;;;2.90;;
79539;SDS011;74475;52.122;5.406;2023-12-07T09:08:51;5.03;;;3.28;;
79539;SDS011;74475;52.122;5.406;2023-12-07T09:11:18;4.60;;;3.20;;
79539;SDS011;74475;52.122;5.406;2023-12-07T09:13:44;3.92;;;2.78;;
79539;SDS011;74475;52.122;5.406;2023-12-07T09:16:11;3.80;;;3.33;;
79539;SDS011;74475;52.122;5.406;2023-12-07T09:18:37;3.60;;;3.05;;
79539;SDS011;74475;52.122;5.406;2023-12-07T09:21:04;5.30;;;3.20;;
79539;SDS011;74475;52.122;5.406;2023-12-07T09:23:31;5.32;;;3.45;;
79539;SDS011;74475;52.122;5.406;2023-12-07T09:25:57;4.15;;;3.10;;
79539;SDS011;74475;52.122;5.406;2023-12-07T09:28:24;4.80;;;3.25;;
79539;SDS011;74475;52.122;5.406;2023-12-07T09:30:50;4.45;;;3.40;;
79539;SDS011;74475;52.122;5.406;2023-12-07T09:33:17;4.75;;;3.33;;
79539;SDS011;74475;52.122;5.406;2023-12-07T09:35:46;4.60;;;3.05;;
79539;SDS011;74475;52.122;5.406;2023-12-07T09:38:13;5.15;;;3.65;;
79539;SDS011;74475;52.122;5.406;2023-12-07T09:40:40;3.90;;;2.97;;
79539;SDS011;74475;52.122;5.406;2023-12-07T09:43:06;5.75;;;2.95;;
79539;SDS011;74475;52.122;5.406;2023-12-07T09:45:33;5.40;;;3.35;;
79539;SDS011;74475;52.122;5.406;2023-12-07T09:48:00;4.13;;;3.05;;
79539;SDS011;74475;52.122;5.406;2023-12-07T09:50:29;4.07;;;3.03;;
79539;SDS011;74475;52.122;5.406;2023-12-07T09:52:56;4.35;;;3.05;;
79539;SDS011;74475;52.122;5.406;2023-12-07T09:55:26;5.32;;;3.47;;
79539;SDS011;74475;52.122;5.406;2023-12-07T09:57:53;4.35;;;3.00;;
79539;SDS011;74475;52.122;5.406;2023-12-07T10:00:23;4.40;;;3.00;;
79539;SDS011;74475;52.122;5.406;2023-12-07T10:02:49;4.03;;;2.92;;
79539;SDS011;74475;52.122;5.406;2023-12-07T10:05:17;4.03;;;3.20;;
79539;SDS011;74475;52.122;5.406;2023-12-07T10:07:44;4.15;;;3.03;;
79539;SDS011;74475;52.122;5.406;2023-12-07T10:10:14;4.85;;;3.42;;
79539;SDS011;74475;52.122;5.406;2023-12-07T10:15:13;3.90;;;2.80;;
79539;SDS011;74475;52.122;5.406;2023-12-07T10:17:48;3.88;;;2.80;;
79539;SDS011;74475;52.122;5.406;2023-12-07T10:20:19;4.25;;;2.80;;
79539;SDS011;74475;52.122;5.406;2023-12-07T10:23:06;4.60;;;2.75;;
79539;SDS011;74475;52.122;5.406;2023-12-07T10:25:41;4.30;;;2.90;;
79539;SDS011;74475;52.122;5.406;2023-12-07T10:28:08;3.90;;;2.80;;
79539;SDS011;74475;52.122;5.406;2023-12-07T10:30:41;4.20;;;2.92;;
79539;SDS011;74475;52.122;5.406;2023-12-07T10:33:09;3.50;;;2.80;;
79539;SDS011;74475;52.122;5.406;2023-12-07T10:35:40;3.42;;;2.63;;
79539;SDS011;74475;52.122;5.406;2023-12-07T10:38:07;3.25;;;2.42;;
79539;SDS011;74475;52.122;5.406;2023-12-07T10:40:34;4.03;;;2.58;;
79539;SDS011;74475;52.122;5.406;2023-12-07T10:43:03;3.60;;;2.60;;
79539;SDS011;74475;52.122;5.406;2023-12-07T10:45:31;4.05;;;2.90;;
79539;SDS011;74475;52.122;5.406;2023-12-07T10:48:00;3.55;;;2.25;;
79539;SDS011;74475;52.122;5.406;2023-12-07T10:50:32;4.93;;;2.72;;
79539;SDS011;74475;52.122;5.406;2023-12-07T10:53:12;3.88;;;2.60;;
79539;SDS011;74475;52.122;5.406;2023-12-07T10:55:46;4.15;;;3.00;;
79539;SDS011;74475;52.122;5.406;2023-12-07T10:58:18;4.35;;;2.88;;
79539;SDS011;74475;52.122;5.406;2023-12-07T11:00:46;4.90;;;2.90;;
79539;SDS011;74475;52.122;5.406;2023-12-07T11:03:15;3.97;;;2.53;;
79539;SDS011;74475;52.122;5.406;2023-12-07T11:05:46;3.92;;;2.83;;
79539;SDS011;74475;52.122;5.406;2023-12-07T11:08:33;3.72;;;2.63;;
79539;SDS011;74475;52.122;5.406;2023-12-07T11:11:06;3.75;;;2.53;;
79539;SDS011;74475;52.122;5.406;2023-12-07T11:13:38;4.82;;;2.40;;
79539;SDS011;74475;52.122;5.406;2023-12-07T11:16:14;3.20;;;2.17;;
79539;SDS011;74475;52.122;5.406;2023-12-07T11:18:41;3.70;;;2.35;;
79539;SDS011;74475;52.122;5.406;2023-12-07T11:21:08;5.00;;;2.30;;
79539;SDS011;74475;52.122;5.406;2023-12-07T11:23:35;4.07;;;2.35;;
79539;SDS011;74475;52.122;5.406;2023-12-07T11:26:02;4.18;;;2.50;;
79539;SDS011;74475;52.122;5.406;2023-12-07T11:28:35;4.15;;;2.60;;
79539;SDS011;74475;52.122;5.406;2023-12-07T11:31:08;4.03;;;2.25;;
79539;SDS011;74475;52.122;5.406;2023-12-07T11:33:38;3.63;;;2.38;;
79539;SDS011;74475;52.122;5.406;2023-12-07T11:36:09;3.38;;;2.35;;
79539;SDS011;74475;52.122;5.406;2023-12-07T11:38:37;3.58;;;2.40;;
79539;SDS011;74475;52.122;5.406;2023-12-07T11:41:04;4.13;;;2.53;;
79539;SDS011;74475;52.122;5.406;2023-12-07T11:46:04;3.15;;;2.08;;
79539;SDS011;74475;52.122;5.406;2023-12-07T11:48:31;3.53;;;2.53;;
79539;SDS011;74475;52.122;5.406;2023-12-07T11:50:58;3.67;;;2.30;;
79539;SDS011;74475;52.122;5.406;2023-12-07T11:53:29;3.08;;;2.30;;
79539;SDS011;74475;52.122;5.406;2023-12-07T11:56:07;4.32;;;2.40;;
79539;SDS011;74475;52.122;5.406;2023-12-07T11:58:34;3.85;;;2.40;;
79539;SDS011;74475;52.122;5.406;2023-12-07T12:01:06;3.00;;;2.15;;
79539;SDS011;74475;52.122;5.406;2023-12-07T12:03:34;3.63;;;2.80;;
79539;SDS011;74475;52.122;5.406;2023-12-07T12:06:03;3.40;;;2.25;;
79539;SDS011;74475;52.122;5.406;2023-12-07T12:08:31;4.50;;;2.08;;
79539;SDS011;74475;52.122;5.406;2023-12-07T12:10:58;3.05;;;1.85;;
79539;SDS011;74475;52.122;5.406;2023-12-07T12:13:28;3.85;;;2.65;;
79539;SDS011;74475;52.122;5.406;2023-12-07T12:16:00;2.92;;;2.10;;
79539;SDS011;74475;52.122;5.406;2023-12-07T12:18:31;3.63;;;2.40;;
79539;SDS011;74475;52.122;5.406;2023-12-07T12:20:59;3.65;;;2.40;;
79539;SDS011;74475;52.122;5.406;2023-12-07T12:23:26;3.50;;;2.33;;
79539;SDS011;74475;52.122;5.406;2023-12-07T12:25:52;3.83;;;2.40;;
79539;SDS011;74475;52.122;5.406;2023-12-07T12:28:20;3.47;;;2.50;;
79539;SDS011;74475;52.122;5.406;2023-12-07T12:30:48;4.35;;;2.53;;
79539;SDS011;74475;52.122;5.406;2023-12-07T12:33:16;4.43;;;2.80;;
79539;SDS011;74475;52.122;5.406;2023-12-07T12:35:43;3.25;;;2.00;;
79539;SDS011;74475;52.122;5.406;2023-12-07T12:38:10;3.17;;;2.35;;
79539;SDS011;74475;52.122;5.406;2023-12-07T12:40:52;3.15;;;2.13;;
79539;SDS011;74475;52.122;5.406;2023-12-07T12:43:20;4.03;;;2.38;;
79539;SDS011;74475;52.122;5.406;2023-12-07T12:45:48;3.50;;;2.47;;
79539;SDS011;74475;52.122;5.406;2023-12-07T12:48:31;3.85;;;2.22;;
79539;SDS011;74475;52.122;5.406;2023-12-07T12:50:58;3.70;;;2.25;;
79539;SDS011;74475;52.122;5.406;2023-12-07T12:53:33;3.58;;;2.20;;
79539;SDS011;74475;52.122;5.406;2023-12-07T12:56:00;4.53;;;2.42;;
79539;SDS011;74475;52.122;5.406;2023-12-07T12:58:27;4.53;;;2.80;;
79539;SDS011;74475;52.122;5.406;2023-12-07T13:00:53;3.20;;;2.10;;
79539;SDS011;74475;52.122;5.406;2023-12-07T13:03:21;4.35;;;2.60;;
79539;SDS011;74475;52.122;5.406;2023-12-07T13:05:47;4.13;;;2.40;;
79539;SDS011;74475;52.122;5.406;2023-12-07T13:08:14;4.13;;;2.50;;
79539;SDS011;74475;52.122;5.406;2023-12-07T13:10:40;3.50;;;2.28;;
79539;SDS011;74475;52.122;5.406;2023-12-07T13:13:07;3.22;;;2.13;;
79539;SDS011;74475;52.122;5.406;2023-12-07T13:15:34;3.75;;;2.08;;
79539;SDS011;74475;52.122;5.406;2023-12-07T13:18:01;5.20;;;2.92;;
79539;SDS011;74475;52.122;5.406;2023-12-07T13:20:31;3.65;;;2.35;;
79539;SDS011;74475;52.122;5.406;2023-12-07T13:23:15;3.58;;;2.20;;
79539;SDS011;74475;52.122;5.406;2023-12-07T13:25:41;4.65;;;2.50;;
79539;SDS011;74475;52.122;5.406;2023-12-07T13:28:08;4.22;;;2.03;;
79539;SDS011;74475;52.122;5.406;2023-12-07T13:30:37;4.28;;;2.63;;
79539;SDS011;74475;52.122;5.406;2023-12-07T13:33:05;4.28;;;2.60;;
79539;SDS011;74475;52.122;5.406;2023-12-07T13:35:50;3.50;;;2.28;;
79539;SDS011;74475;52.122;5.406;2023-12-07T13:38:18;4.60;;;2.33;;
79539;SDS011;74475;52.122;5.406;2023-12-07T13:40:47;4.80;;;2.33;;
79539;SDS011;74475;52.122;5.406;2023-12-07T13:43:15;4.38;;;2.47;;
79539;SDS011;74475;52.122;5.406;2023-12-07T13:45:44;4.40;;;2.50;;
79539;SDS011;74475;52.122;5.406;2023-12-07T13:48:10;4.07;;;2.53;;
79539;SDS011;74475;52.122;5.406;2023-12-07T13:50:39;3.28;;;2.53;;
79539;SDS011;74475;52.122;5.406;2023-12-07T13:53:06;4.35;;;2.63;;
79539;SDS011;74475;52.122;5.406;2023-12-07T13:55:37;4.45;;;2.55;;
79539;SDS011;74475;52.122;5.406;2023-12-07T13:58:07;4.03;;;2.47;;
79539;SDS011;74475;52.122;5.406;2023-12-07T14:00:34;3.35;;;2.38;;
79539;SDS011;74475;52.122;5.406;2023-12-07T14:03:00;4.47;;;2.20;;
79539;SDS011;74475;52.122;5.406;2023-12-07T14:05:27;4.55;;;2.60;;
79539;SDS011;74475;52.122;5.406;2023-12-07T14:07:54;4.55;;;2.60;;
79539;SDS011;74475;52.122;5.406;2023-12-07T14:10:21;4.28;;;2.75;;
79539;SDS011;74475;52.122;5.406;2023-12-07T14:12:48;4.88;;;3.25;;
79539;SDS011;74475;52.122;5.406;2023-12-07T14:15:15;3.63;;;2.17;;
79539;SDS011;74475;52.122;5.406;2023-12-07T14:17:51;4.85;;;2.90;;
79539;SDS011;74475;52.122;5.406;2023-12-07T14:20:19;3.50;;;2.40;;
79539;SDS011;74475;52.122;5.406;2023-12-07T14:23:07;4.82;;;3.00;;
79539;SDS011;74475;52.122;5.406;2023-12-07T14:25:34;5.57;;;2.65;;
79539;SDS011;74475;52.122;5.406;2023-12-07T14:28:00;5.95;;;2.90;;
79539;SDS011;74475;52.122;5.406;2023-12-07T14:30:27;4.78;;;2.85;;
79539;SDS011;74475;52.122;5.406;2023-12-07T14:32:53;5.50;;;2.90;;
79539;SDS011;74475;52.122;5.406;2023-12-07T14:35:20;6.78;;;3.30;;
79539;SDS011;74475;52.122;5.406;2023-12-07T14:37:47;3.40;;;2.15;;
79539;SDS011;74475;52.122;5.406;2023-12-07T14:40:16;4.28;;;2.70;;
79539;SDS011;74475;52.122;5.406;2023-12-07T14:42:43;3.65;;;2.42;;
79539;SDS011;74475;52.122;5.406;2023-12-07T14:45:11;4.20;;;2.70;;
79539;SDS011;74475;52.122;5.406;2023-12-07T14:47:38;5.57;;;2.60;;
79539;SDS011;74475;52.122;5.406;2023-12-07T14:50:05;6.35;;;2.90;;
79539;SDS011;74475;52.122;5.406;2023-12-07T14:52:32;4.95;;;3.00;;
79539;SDS011;74475;52.122;5.406;2023-12-07T14:54:58;3.30;;;2.38;;
79539;SDS011;74475;52.122;5.406;2023-12-07T14:57:25;4.78;;;2.50;;
79539;SDS011;74475;52.122;5.406;2023-12-07T14:59:51;3.92;;;2.20;;
79539;SDS011;74475;52.122;5.406;2023-12-07T15:02:20;3.78;;;2.13;;